Terminal Aerodrome Forecast
Issued by NWS

Home | Current Version | Previous Version | Text Only | Print | Product List | Glossary Off
Versions: 1 2 3 4 5 6 7 8 9 10 11 12 13 14 15 16 17 18 19 20 21

000
FTUS43 KGRB 201727
TAFCWA
TAF
KCWA 201727Z 2018/2118 25007KT 6SM BR OVC005
      TEMPO 2018/2022 5SM -DZ BR OVC003
     FM210000 29009KT P6SM BKN015
     FM211200 30007KT P6SM SCT025
     FM211600 30009KT P6SM SKC=

USA.gov is the U.S. government's official web portal to all federal, state and local government web resources and services.